PTKK

Details ICAO PTKK (TKK)
Name Chukk Intl
Region Federated States of Micronesia, Palau
Timezone Pacific/Chuuk (UTC+10.0)
Plans Departing 21
Arriving 15
Stats Elevation 11 ft / 3 m (AMSL)
Location 7.461893° 151.843022°
Runways 1
Magnetic Variation 4.054° E
Sunrise 2017-12-12 19:57:13 UTC / 2017-12-13 05:57:13 Local
Sunset 2017-12-13 07:38:53 UTC / 2017-12-13 17:38:53 Local
Advertisement - Login to hide

Runways

ID Width Length Bearing (true) Bearing (mag) Surface Threshold Offset Overrun Length
04 151 ft / 46 m 6,019 ft / 1,835 m 45.81° 41.76° Asphalt 0 ft / 0 m 194 ft / 59 m
22 151 ft / 46 m 6,019 ft / 1,835 m 225.81° 221.76° Asphalt 0 ft / 0 m 194 ft / 59 m

Map

Weather


0- 5 10 15 20 25 30 35+ Temperature / ° C

Clouds and Precipitation
Forecast for 2017-12-13 00:00 UTC. Updated an hour ago

Ground ~20,000 ft ~40,000 ft Winds

METAR

PTKK 121850Z VRB05KT 15SM SCT012CB BKN120 OVC280 27/25 A2969 RMK CB ALQDS SLP055 T02670251

TAF

TAF PTKK 121720Z 1218/1318 09011KT P6SM VCSH SCT012 SCT040 BKN120 TEMPO 1219/1223 4SM SHRA SCT012 BKN025 OVC050

Frequencies

Unicom 123.60 MHz CTAF
Warning: Do not use this data for real-world aviation or navigation. No guarantee of current accuracy is given.